RJTT/HND METAR and TAF weather

Enter ICAO airport designator
Station Type Date Time Source
RJTT METAR 2019/08/24 18:00 UTC NOAA

RJTT 241800Z 08012KT 9999 -SHRA FEW015 BKN020 BKN030 25/24 Q1007 BECMG 36010KT


Station Type Date Time Source
RJTT Decoded METAR 2019/08/24 18:00 UTC NOAA

Station name not available
Aug 24, 2019 - 02:00 PM EDT / 2019.08.24 1800 UTC
Wind: from the E (080 degrees) at 14 MPH (12 KT):0
Visibility: greater than 7 mile(s):0
Sky conditions: mostly cloudy
Weather: light rain showers
Temperature: 77 F (25 C)
Dew Point: 75 F (24 C)
Relative Humidity: 94%
Pressure (altimeter): 29.74 in. Hg (1007 hPa)
ob: RJTT 241800Z 08012KT 9999 -SHRA FEW015 BKN020 BKN030 25/24 Q1007 BECMG 36010KT
cycle: 18

Station Type Date Time Source
RJTT TAF 2019/08/24 18:28 UTC NOAA

TAF RJTT 241705Z 2418/2600 08008KT 9999 FEW008 BKN015
BECMG 2419/2421 03011KT
BECMG 2501/2503 09008KT
BECMG 2504/2506 18012KT
BECMG 2515/2518 02008KT

Example: see airport list